sensor_id;sensor_type;location;lat;lon;timestamp;pressure;altitude;pressure_sealevel;temperature;humidity
12949;BME280;6539;49.476;8.484;2023-02-19T00:02:21;101105.75;;;12.32;68.46
12949;BME280;6539;49.476;8.484;2023-02-19T00:04:46;101104.97;;;12.35;68.64
12949;BME280;6539;49.476;8.484;2023-02-19T00:07:12;101089.66;;;12.27;68.76
12949;BME280;6539;49.476;8.484;2023-02-19T00:09:40;101084.94;;;12.23;68.86
12949;BME280;6539;49.476;8.484;2023-02-19T00:12:11;101085.75;;;12.20;69.18
12949;BME280;6539;49.476;8.484;2023-02-19T00:14:37;101087.72;;;12.20;69.31
12949;BME280;6539;49.476;8.484;2023-02-19T00:17:04;101082.59;;;12.22;69.43
12949;BME280;6539;49.476;8.484;2023-02-19T00:19:30;101076.31;;;12.14;69.57
12949;BME280;6539;49.476;8.484;2023-02-19T00:21:56;101083.41;;;12.22;69.48
12949;BME280;6539;49.476;8.484;2023-02-19T00:24:22;101075.13;;;12.26;68.95
12949;BME280;6539;49.476;8.484;2023-02-19T00:26:48;101090.06;;;12.21;69.32
12949;BME280;6539;49.476;8.484;2023-02-19T00:29:19;101098.31;;;12.25;69.17
12949;BME280;6539;49.476;8.484;2023-02-19T00:31:45;101089.31;;;12.17;69.39
12949;BME280;6539;49.476;8.484;2023-02-19T00:34:13;101101.09;;;12.18;69.88
12949;BME280;6539;49.476;8.484;2023-02-19T00:36:42;101092.81;;;12.29;69.21
12949;BME280;6539;49.476;8.484;2023-02-19T00:39:13;101095.16;;;12.30;68.97
12949;BME280;6539;49.476;8.484;2023-02-19T00:41:40;101095.16;;;12.30;69.55
12949;BME280;6539;49.476;8.484;2023-02-19T00:44:07;101093.19;;;12.27;69.37
12949;BME280;6539;49.476;8.484;2023-02-19T00:46:39;101085.31;;;12.33;69.27
12949;BME280;6539;49.476;8.484;2023-02-19T00:49:09;101082.59;;;12.25;69.45
12949;BME280;6539;49.476;8.484;2023-02-19T00:51:37;101093.22;;;12.23;69.55
12949;BME280;6539;49.476;8.484;2023-02-19T00:54:04;101094.03;;;12.13;69.92
12949;BME280;6539;49.476;8.484;2023-02-19T00:56:33;101090.16;;;12.00;70.67
12949;BME280;6539;49.476;8.484;2023-02-19T00:59:04;101092.53;;;11.98;71.24
12949;BME280;6539;49.476;8.484;2023-02-19T01:01:30;101082.25;;;12.06;70.55
12949;BME280;6539;49.476;8.484;2023-02-19T01:03:57;101084.63;;;12.04;70.76
12949;BME280;6539;49.476;8.484;2023-02-19T01:06:23;101094.06;;;12.03;71.37
12949;BME280;6539;49.476;8.484;2023-02-19T01:08:49;101085.03;;;11.95;71.69
12949;BME280;6539;49.476;8.484;2023-02-19T01:11:16;101080.72;;;11.98;71.69
12949;BME280;6539;49.476;8.484;2023-02-19T01:13:43;101087.38;;;12.07;71.69
12949;BME280;6539;49.476;8.484;2023-02-19T01:16:20;101112.16;;;12.00;71.27
12949;BME280;6539;49.476;8.484;2023-02-19T01:18:46;101112.16;;;12.00;71.96
12949;BME280;6539;49.476;8.484;2023-02-19T01:21:19;101104.69;;;12.04;71.89
12949;BME280;6539;49.476;8.484;2023-02-19T01:23:49;101098.78;;;12.06;71.92
12949;BME280;6539;49.476;8.484;2023-02-19T01:26:26;101104.28;;;12.02;71.75
12949;BME280;6539;49.476;8.484;2023-02-19T01:29:01;101088.56;;;12.03;71.99
12949;BME280;6539;49.476;8.484;2023-02-19T01:31:30;101080.69;;;12.01;72.23
12949;BME280;6539;49.476;8.484;2023-02-19T01:33:59;101074.41;;;11.97;72.99
12949;BME280;6539;49.476;8.484;2023-02-19T01:36:31;101065.41;;;11.93;73.50
12949;BME280;6539;49.476;8.484;2023-02-19T01:38:59;101074.06;;;11.92;74.16
12949;BME280;6539;49.476;8.484;2023-02-19T01:41:28;101069.72;;;11.94;74.09
12949;BME280;6539;49.476;8.484;2023-02-19T01:46:43;101080.00;;;11.76;75.80
12949;BME280;6539;49.476;8.484;2023-02-19T01:49:22;101075.66;;;11.82;75.85
12949;BME280;6539;49.476;8.484;2023-02-19T01:52:05;101072.91;;;11.82;75.58
12949;BME280;6539;49.476;8.484;2023-02-19T01:54:37;101065.44;;;11.79;75.64
12949;BME280;6539;49.476;8.484;2023-02-19T01:57:12;101056.81;;;11.77;76.12
12949;BME280;6539;49.476;8.484;2023-02-19T01:59:42;101047.38;;;11.75;76.16
12949;BME280;6539;49.476;8.484;2023-02-19T02:02:08;101052.09;;;11.74;76.27
12949;BME280;6539;49.476;8.484;2023-02-19T02:04:35;101054.06;;;11.60;77.39
12949;BME280;6539;49.476;8.484;2023-02-19T02:07:07;101042.28;;;11.66;77.57
12949;BME280;6539;49.476;8.484;2023-02-19T02:09:56;101037.56;;;11.70;77.45
12949;BME280;6539;49.476;8.484;2023-02-19T02:12:40;101049.34;;;11.67;77.52
12949;BME280;6539;49.476;8.484;2023-02-19T02:15:06;101045.44;;;11.68;77.58
12949;BME280;6539;49.476;8.484;2023-02-19T02:18:07;101039.94;;;11.58;78.31
12949;BME280;6539;49.476;8.484;2023-02-19T02:26:31;101028.97;;;11.47;78.74
12949;BME280;6539;49.476;8.484;2023-02-19T02:32:14;101022.28;;;11.44;79.09
12949;BME280;6539;49.476;8.484;2023-02-19T02:34:53;101028.16;;;11.50;79.44
12949;BME280;6539;49.476;8.484;2023-02-19T02:37:24;101030.50;;;11.48;79.17
12949;BME280;6539;49.476;8.484;2023-02-19T02:39:53;101027.38;;;11.46;79.11
12949;BME280;6539;49.476;8.484;2023-02-19T02:42:21;101021.09;;;11.49;78.67
12949;BME280;6539;49.476;8.484;2023-02-19T02:44:57;101014.78;;;11.52;78.54
12949;BME280;6539;49.476;8.484;2023-02-19T02:47:53;101017.91;;;11.54;78.34
12949;BME280;6539;49.476;8.484;2023-02-19T02:50:29;101013.22;;;11.51;78.75
12949;BME280;6539;49.476;8.484;2023-02-19T02:53:46;101004.97;;;11.51;78.83
12949;BME280;6539;49.476;8.484;2023-02-19T02:56:24;101012.44;;;11.50;79.07
12949;BME280;6539;49.476;8.484;2023-02-19T02:58:55;101018.31;;;11.56;78.99
12949;BME280;6539;49.476;8.484;2023-02-19T03:01:30;101030.47;;;11.59;78.84
12949;BME280;6539;49.476;8.484;2023-02-19T03:07:41;101014.00;;;11.55;79.23
12949;BME280;6539;49.476;8.484;2023-02-19T03:13:14;101004.94;;;11.65;79.43
12949;BME280;6539;49.476;8.484;2023-02-19T03:16:17;101017.94;;;11.58;79.57
12949;BME280;6539;49.476;8.484;2023-02-19T03:19:06;101014.00;;;11.62;79.46
12949;BME280;6539;49.476;8.484;2023-02-19T03:22:04;101017.94;;;11.68;79.57
12949;BME280;6539;49.476;8.484;2023-02-19T03:24:40;101030.88;;;11.57;79.25
12949;BME280;6539;49.476;8.484;2023-02-19T03:27:29;101017.53;;;11.56;79.98
12949;BME280;6539;49.476;8.484;2023-02-19T03:30:06;101015.16;;;11.61;79.81
12949;BME280;6539;49.476;8.484;2023-02-19T03:32:43;101009.31;;;11.48;80.30
12949;BME280;6539;49.476;8.484;2023-02-19T03:35:17;101015.56;;;11.56;80.18
12949;BME280;6539;49.476;8.484;2023-02-19T03:37:49;101008.50;;;11.62;79.70
12949;BME280;6539;49.476;8.484;2023-02-19T03:40:30;100993.16;;;11.54;80.48
12949;BME280;6539;49.476;8.484;2023-02-19T03:43:24;101008.09;;;11.60;80.11
12949;BME280;6539;49.476;8.484;2023-02-19T03:46:14;101013.22;;;11.51;80.02
12949;BME280;6539;49.476;8.484;2023-02-19T03:48:52;101005.41;;;11.32;81.04
12949;BME280;6539;49.476;8.484;2023-02-19T03:51:48;100999.13;;;11.35;81.22
12949;BME280;6539;49.476;8.484;2023-02-19T03:54:22;101001.09;;;11.31;81.20
12949;BME280;6539;49.476;8.484;2023-02-19T03:57:01;101002.66;;;11.42;80.86
12949;BME280;6539;49.476;8.484;2023-02-19T04:02:36;101018.75;;;11.37;81.41
12949;BME280;6539;49.476;8.484;2023-02-19T04:05:14;101018.34;;;11.42;80.90
12949;BME280;6539;49.476;8.484;2023-02-19T04:07:45;101012.84;;;11.45;80.45
12949;BME280;6539;49.476;8.484;2023-02-19T04:10:16;101028.53;;;11.52;80.45
12949;BME280;6539;49.476;8.484;2023-02-19T04:12:50;101019.91;;;11.43;80.42
12949;BME280;6539;49.476;8.484;2023-02-19T04:15:27;101022.28;;;11.44;80.82
12949;BME280;6539;49.476;8.484;2023-02-19T04:18:00;101016.38;;;11.46;80.96
12949;BME280;6539;49.476;8.484;2023-02-19T04:20:34;101023.44;;;11.50;80.90
12949;BME280;6539;49.476;8.484;2023-02-19T04:23:04;101028.16;;;11.50;80.82
12949;BME280;6539;49.476;8.484;2023-02-19T04:25:34;101023.44;;;11.50;81.08
12949;BME280;6539;49.476;8.484;2023-02-19T04:28:03;101037.56;;;11.56;80.39
12949;BME280;6539;49.476;8.484;2023-02-19T04:30:30;101032.88;;;11.53;80.52
12949;BME280;6539;49.476;8.484;2023-02-19T04:32:55;101042.69;;;11.50;80.43
12949;BME280;6539;49.476;8.484;2023-02-19T04:35:23;101032.47;;;11.55;80.14
12949;BME280;6539;49.476;8.484;2023-02-19T04:37:49;101034.41;;;11.54;80.07
12949;BME280;6539;49.476;8.484;2023-02-19T04:40:14;101037.56;;;11.56;80.00
12949;BME280;6539;49.476;8.484;2023-02-19T04:42:43;101039.13;;;11.57;80.42
12949;BME280;6539;49.476;8.484;2023-02-19T04:45:13;101039.13;;;11.57;80.27
12949;BME280;6539;49.476;8.484;2023-02-19T04:47:39;101034.41;;;11.61;80.25
12949;BME280;6539;49.476;8.484;2023-02-19T04:50:05;101035.19;;;11.65;79.57
12949;BME280;6539;49.476;8.484;2023-02-19T04:52:33;101041.50;;;11.69;79.38
12949;BME280;6539;49.476;8.484;2023-02-19T04:55:00;101034.41;;;11.61;79.42
12949;BME280;6539;49.476;8.484;2023-02-19T04:57:28;101031.28;;;11.52;79.84
12949;BME280;6539;49.476;8.484;2023-02-19T04:59:54;101032.06;;;11.56;80.13
12949;BME280;6539;49.476;8.484;2023-02-19T05:02:20;101038.34;;;11.57;80.36
12949;BME280;6539;49.476;8.484;2023-02-19T05:04:45;101043.44;;;11.62;79.93
12949;BME280;6539;49.476;8.484;2023-02-19T05:07:13;101036.75;;;11.63;79.98
12949;BME280;6539;49.476;8.484;2023-02-19T05:09:39;101042.66;;;11.61;80.50
12949;BME280;6539;49.476;8.484;2023-02-19T05:12:05;101036.00;;;11.51;80.80
12949;BME280;6539;49.476;8.484;2023-02-19T05:14:31;101044.25;;;11.51;81.39
12949;BME280;6539;49.476;8.484;2023-02-19T05:16:56;101044.22;;;11.59;81.10
12949;BME280;6539;49.476;8.484;2023-02-19T05:19:22;101042.28;;;11.59;81.51
12949;BME280;6539;49.476;8.484;2023-02-19T05:21:53;101040.31;;;11.56;81.50
12949;BME280;6539;49.476;8.484;2023-02-19T05:24:21;101047.41;;;11.46;82.26
12949;BME280;6539;49.476;8.484;2023-02-19T05:26:51;101047.00;;;11.48;82.44
12949;BME280;6539;49.476;8.484;2023-02-19T05:29:18;101051.34;;;11.42;82.46
12949;BME280;6539;49.476;8.484;2023-02-19T05:31:44;101057.22;;;11.47;83.07
12949;BME280;6539;49.476;8.484;2023-02-19T05:34:10;101059.19;;;11.47;82.68
12949;BME280;6539;49.476;8.484;2023-02-19T05:36:39;101065.06;;;11.45;82.69
12949;BME280;6539;49.476;8.484;2023-02-19T05:39:06;101052.91;;;11.50;82.71
12949;BME280;6539;49.476;8.484;2023-02-19T05:41:33;101065.06;;;11.56;82.39
12949;BME280;6539;49.476;8.484;2023-02-19T05:44:01;101054.88;;;11.60;82.11
12949;BME280;6539;49.476;8.484;2023-02-19T05:46:28;101059.94;;;11.62;82.67
12949;BME280;6539;49.476;8.484;2023-02-19T05:48:54;101058.75;;;11.63;82.15
12949;BME280;6539;49.476;8.484;2023-02-19T05:51:25;101054.06;;;11.60;82.35
12949;BME280;6539;49.476;8.484;2023-02-19T05:53:51;101058.41;;;11.50;82.80
12949;BME280;6539;49.476;8.484;2023-02-19T05:56:40;101050.94;;;11.47;83.09
12949;BME280;6539;49.476;8.484;2023-02-19T05:59:20;101061.16;;;11.54;83.29
12949;BME280;6539;49.476;8.484;2023-02-19T06:01:53;101072.13;;;11.50;84.01
12949;BME280;6539;49.476;8.484;2023-02-19T06:04:22;101063.13;;;11.46;84.98
12949;BME280;6539;49.476;8.484;2023-02-19T06:06:51;101070.19;;;11.33;86.16
12949;BME280;6539;49.476;8.484;2023-02-19T06:09:16;101060.38;;;11.39;85.98
12949;BME280;6539;49.476;8.484;2023-02-19T06:11:45;101072.94;;;11.36;86.63
12949;BME280;6539;49.476;8.484;2023-02-19T06:14:12;101069.00;;;11.37;85.98
12949;BME280;6539;49.476;8.484;2023-02-19T06:16:38;101069.41;;;11.32;86.04
12949;BME280;6539;49.476;8.484;2023-02-19T06:19:04;101085.53;;;11.34;85.82
12949;BME280;6539;49.476;8.484;2023-02-19T06:21:32;101078.06;;;11.31;85.57
12949;BME280;6539;49.476;8.484;2023-02-19T06:24:03;101087.88;;;11.25;86.20
12949;BME280;6539;49.476;8.484;2023-02-19T06:26:29;101096.88;;;11.32;85.82
12949;BME280;6539;49.476;8.484;2023-02-19T06:28:57;101088.66;;;11.32;85.34
12949;BME280;6539;49.476;8.484;2023-02-19T06:31:23;101094.53;;;11.31;84.94
12949;BME280;6539;49.476;8.484;2023-02-19T06:33:48;101094.94;;;11.29;84.33
12949;BME280;6539;49.476;8.484;2023-02-19T06:36:18;101093.38;;;11.32;84.25
12949;BME280;6539;49.476;8.484;2023-02-19T06:38:47;101092.97;;;11.33;83.99
12949;BME280;6539;49.476;8.484;2023-02-19T06:41:13;101104.38;;;11.35;83.61
12949;BME280;6539;49.476;8.484;2023-02-19T06:43:41;101100.44;;;11.40;83.25
12949;BME280;6539;49.476;8.484;2023-02-19T06:46:09;101100.44;;;11.40;82.39
12949;BME280;6539;49.476;8.484;2023-02-19T06:48:35;101110.63;;;11.43;82.65
12949;BME280;6539;49.476;8.484;2023-02-19T06:51:03;101113.38;;;11.43;82.21
12949;BME280;6539;49.476;8.484;2023-02-19T06:53:29;101111.81;;;11.42;81.68
12949;BME280;6539;49.476;8.484;2023-02-19T06:56:18;101130.28;;;11.45;81.42
12949;BME280;6539;49.476;8.484;2023-02-19T06:58:45;101133.44;;;11.47;80.59
12949;BME280;6539;49.476;8.484;2023-02-19T07:01:10;101145.22;;;11.55;81.05
12949;BME280;6539;49.476;8.484;2023-02-19T07:03:36;101146.78;;;11.59;80.68
12949;BME280;6539;49.476;8.484;2023-02-19T07:06:02;101147.56;;;11.56;79.12
12949;BME280;6539;49.476;8.484;2023-02-19T07:08:30;101155.41;;;11.61;78.63
12949;BME280;6539;49.476;8.484;2023-02-19T07:10:57;101159.75;;;11.66;77.66
12949;BME280;6539;49.476;8.484;2023-02-19T07:13:25;101164.88;;;11.67;77.67
12949;BME280;6539;49.476;8.484;2023-02-19T07:15:58;101170.00;;;11.69;76.53
12949;BME280;6539;49.476;8.484;2023-02-19T07:18:27;101177.03;;;11.73;76.26
12949;BME280;6539;49.476;8.484;2023-02-19T07:21:01;101177.44;;;11.72;75.82
12949;BME280;6539;49.476;8.484;2023-02-19T07:23:27;101184.91;;;11.75;75.54
12949;BME280;6539;49.476;8.484;2023-02-19T07:25:52;101190.03;;;11.76;75.58
12949;BME280;6539;49.476;8.484;2023-02-19T07:28:18;101185.28;;;11.80;75.34
12949;BME280;6539;49.476;8.484;2023-02-19T07:30:44;101184.50;;;11.87;74.73
12949;BME280;6539;49.476;8.484;2023-02-19T07:33:10;101191.19;;;11.89;74.08
12949;BME280;6539;49.476;8.484;2023-02-19T07:35:45;101189.59;;;11.95;74.23
12949;BME280;6539;49.476;8.484;2023-02-19T07:38:22;101179.00;;;11.94;73.68
12949;BME280;6539;49.476;8.484;2023-02-19T07:40:57;101191.19;;;12.00;73.57
12949;BME280;6539;49.476;8.484;2023-02-19T07:43:25;101186.84;;;11.95;73.59
12949;BME280;6539;49.476;8.484;2023-02-19T07:45:52;101177.03;;;11.94;73.76
12949;BME280;6539;49.476;8.484;2023-02-19T07:48:18;101170.34;;;11.95;73.50
12949;BME280;6539;49.476;8.484;2023-02-19T07:50:58;101173.09;;;11.95;73.39
12949;BME280;6539;49.476;8.484;2023-02-19T07:53:26;101166.03;;;11.98;73.27
12949;BME280;6539;49.476;8.484;2023-02-19T07:55:53;101165.22;;;11.97;73.59
12949;BME280;6539;49.476;8.484;2023-02-19T07:58:19;101167.22;;;12.00;73.23
12949;BME280;6539;49.476;8.484;2023-02-19T08:00:45;101181.75;;;11.97;73.52
12949;BME280;6539;49.476;8.484;2023-02-19T08:03:11;101190.78;;;12.01;73.48
12949;BME280;6539;49.476;8.484;2023-02-19T08:05:41;101198.66;;;11.99;73.85
12949;BME280;6539;49.476;8.484;2023-02-19T08:08:16;101210.44;;;12.00;73.96
12949;BME280;6539;49.476;8.484;2023-02-19T08:10:44;101212.03;;;12.01;73.57
12949;BME280;6539;49.476;8.484;2023-02-19T08:13:30;101212.81;;;11.98;73.85
12949;BME280;6539;49.476;8.484;2023-02-19T08:16:10;101213.59;;;11.98;74.49
12949;BME280;6539;49.476;8.484;2023-02-19T08:18:39;101217.91;;;12.06;73.91
12949;BME280;6539;49.476;8.484;2023-02-19T08:21:04;101219.88;;;12.06;73.88
12949;BME280;6539;49.476;8.484;2023-02-19T08:23:30;101216.75;;;12.00;74.39
12949;BME280;6539;49.476;8.484;2023-02-19T08:25:58;101224.59;;;12.02;74.13
12949;BME280;6539;49.476;8.484;2023-02-19T08:28:28;101219.47;;;12.11;73.57
12949;BME280;6539;49.476;8.484;2023-02-19T08:30:59;101218.69;;;12.17;73.63
12949;BME280;6539;49.476;8.484;2023-02-19T08:33:26;101236.38;;;12.23;72.86
12949;BME280;6539;49.476;8.484;2023-02-19T08:36:00;101227.72;;;12.29;72.19
12949;BME280;6539;49.476;8.484;2023-02-19T08:38:29;101243.03;;;12.37;71.85
12949;BME280;6539;49.476;8.484;2023-02-19T08:40:55;101240.66;;;12.39;70.85
12949;BME280;6539;49.476;8.484;2023-02-19T08:43:23;101249.72;;;12.36;70.65
12949;BME280;6539;49.476;8.484;2023-02-19T08:45:53;101263.88;;;12.38;71.26
12949;BME280;6539;49.476;8.484;2023-02-19T08:48:20;101255.59;;;12.41;70.91
12949;BME280;6539;49.476;8.484;2023-02-19T08:50:56;101257.56;;;12.48;70.67
12949;BME280;6539;49.476;8.484;2023-02-19T08:53:23;101264.25;;;12.50;69.68
12949;BME280;6539;49.476;8.484;2023-02-19T08:55:50;101270.53;;;12.54;69.66
12949;BME280;6539;49.476;8.484;2023-02-19T08:58:21;101267.41;;;12.52;69.83
12949;BME280;6539;49.476;8.484;2023-02-19T09:00:51;101272.50;;;12.54;70.02
12949;BME280;6539;49.476;8.484;2023-02-19T09:03:22;101274.00;;;12.83;70.82
12949;BME280;6539;49.476;8.484;2023-02-19T09:05:51;101275.91;;;13.00;68.80
12949;BME280;6539;49.476;8.484;2023-02-19T09:08:22;101277.88;;;12.92;68.00
12949;BME280;6539;49.476;8.484;2023-02-19T09:11:03;101280.25;;;12.97;68.19
12949;BME280;6539;49.476;8.484;2023-02-19T09:13:29;101296.38;;;13.06;67.57
12949;BME280;6539;49.476;8.484;2023-02-19T09:15:58;101298.28;;;13.23;67.51
12949;BME280;6539;49.476;8.484;2023-02-19T09:18:25;101303.84;;;13.09;66.66
12949;BME280;6539;49.476;8.484;2023-02-19T09:20:51;101306.63;;;13.02;67.06
12949;BME280;6539;49.476;8.484;2023-02-19T09:23:19;101301.09;;;12.98;67.29
12949;BME280;6539;49.476;8.484;2023-02-19T09:25:47;101299.91;;;12.99;67.12
12949;BME280;6539;49.476;8.484;2023-02-19T09:28:15;101304.66;;;12.99;67.07
12949;BME280;6539;49.476;8.484;2023-02-19T09:30:41;101305.41;;;13.03;67.44
12949;BME280;6539;49.476;8.484;2023-02-19T09:33:09;101307.41;;;13.06;66.83
12949;BME280;6539;49.476;8.484;2023-02-19T09:35:38;101303.09;;;12.98;66.31
12949;BME280;6539;49.476;8.484;2023-02-19T09:38:05;101316.06;;;12.94;66.24
12949;BME280;6539;49.476;8.484;2023-02-19T09:40:30;101315.31;;;12.90;66.41
12949;BME280;6539;49.476;8.484;2023-02-19T09:42:56;101320.41;;;12.88;66.96
12949;BME280;6539;49.476;8.484;2023-02-19T09:45:25;101310.97;;;12.89;66.64
12949;BME280;6539;49.476;8.484;2023-02-19T09:47:56;101303.47;;;12.96;66.52
12949;BME280;6539;49.476;8.484;2023-02-19T09:50:39;101307.78;;;13.01;66.22
12949;BME280;6539;49.476;8.484;2023-02-19T09:53:26;101303.09;;;12.98;65.25
12949;BME280;6539;49.476;8.484;2023-02-19T09:55:55;101318.03;;;12.97;65.99
12949;BME280;6539;49.476;8.484;2023-02-19T10:00:55;101330.66;;;12.98;66.73
12949;BME280;6539;49.476;8.484;2023-02-19T10:03:26;101325.91;;;13.02;65.91
12949;BME280;6539;49.476;8.484;2023-02-19T10:06:21;101318.03;;;13.04;65.64
12949;BME280;6539;49.476;8.484;2023-02-19T10:08:49;101312.88;;;13.02;65.30
12949;BME280;6539;49.476;8.484;2023-02-19T10:11:17;101314.09;;;13.09;64.56
12949;BME280;6539;49.476;8.484;2023-02-19T10:13:49;101312.47;;;13.18;64.71
12949;BME280;6539;49.476;8.484;2023-02-19T10:16:23;101313.66;;;13.14;64.30
12949;BME280;6539;49.476;8.484;2023-02-19T10:18:49;101321.56;;;13.15;63.39
12949;BME280;6539;49.476;8.484;2023-02-19T10:21:23;101321.94;;;13.03;63.66
12949;BME280;6539;49.476;8.484;2023-02-19T10:23:56;101314.88;;;13.02;63.34
12949;BME280;6539;49.476;8.484;2023-02-19T10:26:29;101331.00;;;13.03;63.51
12949;BME280;6539;49.476;8.484;2023-02-19T10:29:00;101320.38;;;13.13;63.67
12949;BME280;6539;49.476;8.484;2023-02-19T10:31:31;101321.56;;;13.15;62.60
12949;BME280;6539;49.476;8.484;2023-02-19T10:34:00;101323.50;;;13.22;62.63
12949;BME280;6539;49.476;8.484;2023-02-19T10:36:39;101317.59;;;13.23;61.87
12949;BME280;6539;49.476;8.484;2023-02-19T10:41:50;101327.34;;;13.45;61.86
12949;BME280;6539;49.476;8.484;2023-02-19T10:44:25;101336.72;;;13.55;61.21
12949;BME280;6539;49.476;8.484;2023-02-19T10:46:57;101331.16;;;13.69;61.66
12949;BME280;6539;49.476;8.484;2023-02-19T10:49:37;101325.56;;;13.80;61.08
12949;BME280;6539;49.476;8.484;2023-02-19T10:52:29;101336.06;;;13.99;59.20
12949;BME280;6539;49.476;8.484;2023-02-19T10:57:43;101338.19;;;14.76;56.61
12949;BME280;6539;49.476;8.484;2023-02-19T11:02:43;101348.53;;;15.70;53.94
12949;BME280;6539;49.476;8.484;2023-02-19T11:07:56;101362.22;;;15.80;52.28
12949;BME280;6539;49.476;8.484;2023-02-19T11:13:03;101362.09;;;15.61;53.52
12949;BME280;6539;49.476;8.484;2023-02-19T11:15:35;101376.25;;;15.66;53.63
12949;BME280;6539;49.476;8.484;2023-02-19T11:21:03;101385.16;;;15.51;53.41
12949;BME280;6539;49.476;8.484;2023-02-19T11:23:34;101387.34;;;15.33;53.01
12949;BME280;6539;49.476;8.484;2023-02-19T11:26:05;101398.56;;;15.18;53.65
12949;BME280;6539;49.476;8.484;2023-02-19T11:28:39;101395.59;;;15.02;53.32
12949;BME280;6539;49.476;8.484;2023-02-19T11:31:31;101387.28;;;15.02;53.15
12949;BME280;6539;49.476;8.484;2023-02-19T11:36:41;101383.53;;;14.82;52.59
12949;BME280;6539;49.476;8.484;2023-02-19T11:45:01;101374.72;;;14.53;53.82
12949;BME280;6539;49.476;8.484;2023-02-19T11:49:10;101371.22;;;14.46;53.54
12949;BME280;6539;49.476;8.484;2023-02-19T11:56:39;101382.38;;;14.80;55.12
12949;BME280;6539;49.476;8.484;2023-02-19T11:59:35;101376.78;;;14.87;53.35
12949;BME280;6539;49.476;8.484;2023-02-19T12:02:47;101371.97;;;14.94;52.84
12949;BME280;6539;49.476;8.484;2023-02-19T12:14:29;101380.63;;;14.96;52.95
12949;BME280;6539;49.476;8.484;2023-02-19T12:43:15;101355.84;;;14.45;53.72
12949;BME280;6539;49.476;8.484;2023-02-19T12:46:11;101358.59;;;14.45;53.75
12949;BME280;6539;49.476;8.484;2023-02-19T12:48:49;101380.31;;;14.46;54.00
12949;BME280;6539;49.476;8.484;2023-02-19T12:51:45;101379.56;;;14.42;54.05
12949;BME280;6539;49.476;8.484;2023-02-19T12:57:22;101377.22;;;14.37;53.93
12949;BME280;6539;49.476;8.484;2023-02-19T12:59:51;101367.72;;;14.38;53.80
12949;BME280;6539;49.476;8.484;2023-02-19T13:02:39;101384.69;;;14.44;53.86
12949;BME280;6539;49.476;8.484;2023-02-19T13:08:18;101377.41;;;14.61;53.29
12949;BME280;6539;49.476;8.484;2023-02-19T13:11:10;101387.25;;;14.65;53.45
12949;BME280;6539;49.476;8.484;2023-02-19T13:13:52;101370.97;;;14.74;53.83
12949;BME280;6539;49.476;8.484;2023-02-19T13:16:22;101373.75;;;14.74;53.35
12949;BME280;6539;49.476;8.484;2023-02-19T13:18:53;101357.94;;;14.75;52.89
12949;BME280;6539;49.476;8.484;2023-02-19T13:21:27;101360.34;;;14.69;52.69
12949;BME280;6539;49.476;8.484;2023-02-19T13:24:22;101352.84;;;14.70;52.76
12949;BME280;6539;49.476;8.484;2023-02-19T13:27:50;101357.63;;;14.66;52.59
12949;BME280;6539;49.476;8.484;2023-02-19T13:38:10;101328.84;;;14.63;52.24
12949;BME280;6539;49.476;8.484;2023-02-19T13:40:41;101328.78;;;14.70;52.37
12949;BME280;6539;49.476;8.484;2023-02-19T13:43:23;101334.19;;;14.77;52.11
12949;BME280;6539;49.476;8.484;2023-02-19T13:46:12;101341.69;;;14.80;51.77
12949;BME280;6539;49.476;8.484;2023-02-19T13:48:43;101330.25;;;14.78;51.78
12949;BME280;6539;49.476;8.484;2023-02-19T13:59:38;101343.94;;;14.51;53.74
12949;BME280;6539;49.476;8.484;2023-02-19T14:02:24;101341.69;;;14.39;53.79
12949;BME280;6539;49.476;8.484;2023-02-19T14:05:00;101349.66;;;14.34;54.10
12949;BME280;6539;49.476;8.484;2023-02-19T14:09:53;101350.41;;;14.34;53.36
12949;BME280;6539;49.476;8.484;2023-02-19T14:12:29;101343.00;;;14.17;52.88
12949;BME280;6539;49.476;8.484;2023-02-19T14:17:49;101356.34;;;14.33;53.13
12949;BME280;6539;49.476;8.484;2023-02-19T14:23:14;101380.41;;;14.32;52.80
12949;BME280;6539;49.476;8.484;2023-02-19T14:25:58;101388.75;;;14.29;52.69
12949;BME280;6539;49.476;8.484;2023-02-19T14:28:40;101387.94;;;14.25;53.02
12949;BME280;6539;49.476;8.484;2023-02-19T14:31:28;101393.84;;;14.27;53.19
12949;BME280;6539;49.476;8.484;2023-02-19T14:34:20;101392.28;;;14.29;53.17
12949;BME280;6539;49.476;8.484;2023-02-19T14:36:59;101392.72;;;14.21;53.96
12949;BME280;6539;49.476;8.484;2023-02-19T14:39:29;101395.06;;;14.29;56.50
12949;BME280;6539;49.476;8.484;2023-02-19T14:42:21;101394.13;;;14.43;56.48
12949;BME280;6539;49.476;8.484;2023-02-19T14:44:55;101389.25;;;14.61;59.67
12949;BME280;6539;49.476;8.484;2023-02-19T14:47:32;101382.78;;;14.78;57.49
12949;BME280;6539;49.476;8.484;2023-02-19T14:50:25;101389.53;;;14.74;55.36
12949;BME280;6539;49.476;8.484;2023-02-19T14:52:57;101390.38;;;14.71;53.94
12949;BME280;6539;49.476;8.484;2023-02-19T14:55:32;101388.06;;;14.62;54.19
12949;BME280;6539;49.476;8.484;2023-02-19T14:58:09;101401.56;;;14.53;54.05
12949;BME280;6539;49.476;8.484;2023-02-19T15:00:39;101403.56;;;14.52;53.98
12949;BME280;6539;49.476;8.484;2023-02-19T15:03:32;101397.66;;;14.47;54.62
12949;BME280;6539;49.476;8.484;2023-02-19T15:06:16;101400.03;;;14.48;54.46
12949;BME280;6539;49.476;8.484;2023-02-19T15:08:47;101400.47;;;14.43;54.58
12949;BME280;6539;49.476;8.484;2023-02-19T15:11:21;101396.16;;;14.39;54.83
12949;BME280;6539;49.476;8.484;2023-02-19T15:13:55;101410.38;;;14.37;54.26
12949;BME280;6539;49.476;8.484;2023-02-19T15:16:28;101411.97;;;14.28;54.63
12949;BME280;6539;49.476;8.484;2023-02-19T15:18:58;101413.63;;;14.22;54.59
12949;BME280;6539;49.476;8.484;2023-02-19T15:21:28;101410.88;;;14.15;54.81
12949;BME280;6539;49.476;8.484;2023-02-19T15:24:00;101413.63;;;14.22;55.08
12949;BME280;6539;49.476;8.484;2023-02-19T15:26:38;101409.69;;;14.23;54.41
12949;BME280;6539;49.476;8.484;2023-02-19T15:29:18;101412.44;;;14.23;54.33
12949;BME280;6539;49.476;8.484;2023-02-19T15:31:59;101424.66;;;14.22;54.38